Time;durP1;ratioP1;P1;durP2;ratioP2;P2;SDS_P1;SDS_P2;PMS_P1;PMS_P2;Temp;Humidity;BMP_temperature;BMP_pressure;BME280_temperature;BME280_humidity;BME280_pressure;Samples;Min_cycle;Max_cycle;Signal;HPM_P1;HPM_P2
2022/03/14 00:01:40;;;;;;;;;72.60;57.80;26.00;99.90;;;;;;5015836;28;8759;-66
2022/03/14 00:04:06;;;;;;;;;72.20;57.60;26.10;99.90;;;;;;5017046;28;8727;-66
2022/03/14 00:06:35;;;;;;;;;70.60;60.40;26.10;99.90;;;;;;5015863;28;8771;-67
2022/03/14 00:09:06;;;;;;;;;76.40;65.80;26.00;99.90;;;;;;5019834;28;9435;-66
2022/03/14 00:11:36;;;;;;;;;83.00;74.40;26.00;99.90;;;;;;5034230;28;8878;-66
2022/03/14 00:14:06;;;;;;;;;78.00;69.20;26.10;99.90;;;;;;5034450;28;8759;-66
2022/03/14 00:16:40;;;;;;;;;79.60;70.00;26.10;99.90;;;;;;5018182;28;8767;-66
2022/03/14 00:19:07;;;;;;;;;76.00;65.00;26.10;99.90;;;;;;5020687;28;8731;-66
2022/03/14 00:21:38;;;;;;;;;79.20;70.00;26.20;99.90;;;;;;5019650;28;8723;-66
2022/03/14 00:24:07;;;;;;;;;78.20;70.40;26.20;99.90;;;;;;5019571;28;8770;-67
2022/03/14 00:26:34;;;;;;;;;74.40;63.80;26.20;99.90;;;;;;5019190;28;8747;-66
2022/03/14 00:29:01;;;;;;;;;79.40;69.40;26.30;99.90;;;;;;5016233;28;8758;-67
2022/03/14 00:31:28;;;;;;;;;77.00;68.80;26.20;99.90;;;;;;4999479;28;8724;-66
2022/03/14 00:33:54;;;;;;;;;78.00;70.20;26.20;99.90;;;;;;4998817;28;8824;-66
2022/03/14 00:36:22;;;;;;;;;81.00;73.20;26.30;99.90;;;;;;4999016;28;8750;-65
2022/03/14 00:38:49;;;;;;;;;75.80;68.40;26.40;99.90;;;;;;4997439;28;8819;-66
2022/03/14 00:41:16;;;;;;;;;82.40;73.00;26.30;99.90;;;;;;4997498;28;8741;-66
2022/03/14 00:43:43;;;;;;;;;79.40;71.40;26.40;99.90;;;;;;4997139;28;9041;-66
2022/03/14 00:46:10;;;;;;;;;87.20;75.80;26.40;99.90;;;;;;5019203;28;8743;-65
2022/03/14 00:48:37;;;;;;;;;81.40;71.40;26.40;99.90;;;;;;5017973;28;8763;-66
2022/03/14 00:51:05;;;;;;;;;79.80;71.80;26.50;99.90;;;;;;5018578;28;8842;-65
2022/03/14 00:53:32;;;;;;;;;73.60;61.40;26.50;99.90;;;;;;5033022;28;9384;-68
2022/03/14 00:55:59;;;;;;;;;74.00;60.20;26.60;99.90;;;;;;5017261;28;8775;-65
2022/03/14 00:58:26;;;;;;;;;77.40;67.20;26.50;99.90;;;;;;5016966;28;8775;-65
2022/03/14 01:00:52;;;;;;;;;78.80;70.80;26.60;99.90;;;;;;5018285;28;8759;-63
2022/03/14 01:03:19;;;;;;;;;68.60;53.00;26.70;99.90;;;;;;5015754;28;9467;-64
2022/03/14 01:05:46;;;;;;;;;76.20;66.40;26.90;99.90;;;;;;5016721;28;8791;-66
2022/03/14 01:08:12;;;;;;;;;71.60;59.80;27.20;99.90;;;;;;5016774;28;8813;-66
2022/03/14 01:10:39;;;;;;;;;71.00;61.20;27.40;99.90;;;;;;5016649;28;8885;-66
2022/03/14 01:13:06;;;;;;;;;74.20;57.80;27.60;99.90;;;;;;5017390;28;9365;-67
2022/03/14 01:15:34;;;;;;;;;71.60;59.60;27.70;99.90;;;;;;5017030;28;8871;-66
2022/03/14 01:18:01;;;;;;;;;75.80;65.80;27.80;99.90;;;;;;5015201;28;8787;-67
2022/03/14 01:20:27;;;;;;;;;69.80;58.20;27.70;99.90;;;;;;5017706;28;8790;-66
2022/03/14 01:22:54;;;;;;;;;74.40;60.40;27.70;99.90;;;;;;5016952;28;8763;-67
2022/03/14 01:25:24;;;;;;;;;71.20;55.20;27.80;99.90;;;;;;5017549;28;8766;-66
2022/03/14 01:27:52;;;;;;;;;65.60;53.20;27.90;99.90;;;;;;5023837;28;8765;-66
2022/03/14 01:30:19;;;;;;;;;69.00;52.60;28.00;99.90;;;;;;4996649;28;8773;-65
2022/03/14 01:32:47;;;;;;;;;65.60;50.40;28.20;99.90;;;;;;4996679;28;8765;-66
2022/03/14 01:35:13;;;;;;;;;69.80;56.80;28.20;99.90;;;;;;4998255;28;8805;-66
2022/03/14 01:37:40;;;;;;;;;71.80;55.20;28.20;99.90;;;;;;4996855;28;8770;-66
2022/03/14 01:40:10;;;;;;;;;67.80;55.60;28.00;99.90;;;;;;4996425;28;8876;-66
2022/03/14 01:42:37;;;;;;;;;66.60;50.80;28.20;99.90;;;;;;5000853;28;8826;-66
2022/03/14 01:45:05;;;;;;;;;69.25;55.50;28.40;99.90;;;;;;5028974;28;8913;-65
2022/03/14 01:47:34;;;;;;;;;70.20;56.40;28.50;99.90;;;;;;5014919;28;8779;-67
2022/03/14 01:50:00;;;;;;;;;69.40;55.40;28.50;99.90;;;;;;5014825;28;8802;-64
2022/03/14 01:52:27;;;;;;;;;65.00;51.60;28.60;99.90;;;;;;5016524;28;8747;-68
2022/03/14 01:54:54;;;;;;;;;69.60;54.80;28.70;99.90;;;;;;5017305;28;8842;-73
2022/03/14 01:57:21;;;;;;;;;70.40;53.20;28.80;99.90;;;;;;5028104;28;8786;-67
2022/03/14 01:59:47;;;;;;;;;64.60;52.00;28.90;99.90;;;;;;4997041;28;8782;-69
2022/03/14 02:02:14;;;;;;;;;69.00;55.20;29.10;99.90;;;;;;4995412;28;8958;-68
2022/03/14 02:04:40;;;;;;;;;65.60;52.60;29.00;99.90;;;;;;4995338;28;8778;-67
2022/03/14 02:07:07;;;;;;;;;68.40;52.80;28.90;99.90;;;;;;4994109;28;8773;-65
2022/03/14 02:09:34;;;;;;;;;70.00;55.40;29.00;99.90;;;;;;4995314;28;8868;-63
2022/03/14 02:12:01;;;;;;;;;70.40;55.40;28.90;99.90;;;;;;4995941;28;8892;-66
2022/03/14 02:14:28;;;;;;;;;67.40;53.20;29.10;99.90;;;;;;5015218;28;8778;-65
2022/03/14 02:16:55;;;;;;;;;71.00;56.40;29.20;99.90;;;;;;5015020;28;9418;-62
2022/03/14 02:19:21;;;;;;;;;74.80;61.00;29.30;99.90;;;;;;5015372;28;8886;-63
2022/03/14 02:21:48;;;;;;;;;67.80;54.80;29.20;99.90;;;;;;5014524;28;8743;-64
2022/03/14 02:24:15;;;;;;;;;70.80;59.00;29.30;99.90;;;;;;5030495;28;8770;-63
2022/03/14 02:26:43;;;;;;;;;66.60;52.00;29.20;99.90;;;;;;5029274;28;8759;-63
2022/03/14 02:29:11;;;;;;;;;74.80;61.20;29.30;99.90;;;;;;5002165;28;8769;-63
2022/03/14 02:31:38;;;;;;;;;77.20;65.40;29.50;99.90;;;;;;4976178;28;8769;-62
2022/03/14 02:34:07;;;;;;;;;76.00;65.20;29.50;99.90;;;;;;4995066;28;8744;-63
2022/03/14 02:36:39;;;;;;;;;72.40;60.60;29.90;99.90;;;;;;4992040;28;8780;-63
2022/03/14 02:39:07;;;;;;;;;76.40;66.00;29.80;99.90;;;;;;4994070;28;9258;-63
2022/03/14 02:41:33;;;;;;;;;74.40;64.40;29.50;99.90;;;;;;4992640;28;8860;-63
2022/03/14 02:44:01;;;;;;;;;77.80;69.40;29.40;99.90;;;;;;5011041;28;8771;-63
2022/03/14 02:46:29;;;;;;;;;75.00;66.00;29.40;99.90;;;;;;5013877;28;8862;-64
2022/03/14 02:48:56;;;;;;;;;78.20;67.80;29.30;99.90;;;;;;5028875;28;9415;-62
2022/03/14 02:51:23;;;;;;;;;66.40;51.40;29.50;99.90;;;;;;5013961;28;9205;-62
2022/03/14 02:53:49;;;;;;;;;75.00;63.80;29.50;99.90;;;;;;5028001;28;8746;-62
2022/03/14 02:56:17;;;;;;;;;73.80;59.20;29.70;99.90;;;;;;5013621;28;8767;-62
2022/03/14 02:58:45;;;;;;;;;73.40;60.40;29.60;99.90;;;;;;5012262;28;8743;-62
2022/03/14 03:01:14;;;;;;;;;69.00;52.60;29.40;99.90;;;;;;5029103;28;8775;-62
2022/03/14 03:03:40;;;;;;;;;71.80;55.00;29.50;99.90;;;;;;5013362;28;9040;-62
2022/03/14 03:06:09;;;;;;;;;64.00;50.40;29.80;99.90;;;;;;5011456;28;8872;-66
2022/03/14 03:08:38;;;;;;;;;71.20;57.20;29.90;99.90;;;;;;5013488;28;8774;-66
2022/03/14 03:11:08;;;;;;;;;70.40;57.80;29.70;99.90;;;;;;5028556;28;8778;-68
2022/03/14 03:13:35;;;;;;;;;63.80;50.40;29.60;99.90;;;;;;5005151;28;9067;-69
2022/03/14 03:16:02;;;;;;;;;71.80;55.80;29.70;99.90;;;;;;5027514;28;8828;-66
2022/03/14 03:18:28;;;;;;;;;71.40;55.80;29.70;99.90;;;;;;5013521;28;8763;-74
2022/03/14 03:20:55;;;;;;;;;69.60;55.40;29.80;99.90;;;;;;5028781;28;8787;-64
2022/03/14 03:23:22;;;;;;;;;70.40;59.60;29.70;99.90;;;;;;5014164;28;8779;-59
2022/03/14 03:25:48;;;;;;;;;70.00;57.60;29.90;99.90;;;;;;5013852;28;8829;-71
2022/03/14 03:28:15;;;;;;;;;71.00;54.60;29.80;99.90;;;;;;5013842;28;8767;-65
2022/03/14 03:30:41;;;;;;;;;69.00;53.00;30.00;99.90;;;;;;5028680;28;8802;-65
2022/03/14 03:33:08;;;;;;;;;65.60;53.00;29.90;99.90;;;;;;5011128;28;8795;-65
2022/03/14 03:35:35;;;;;;;;;72.60;59.00;30.00;99.90;;;;;;5012341;28;8935;-65
2022/03/14 03:38:01;;;;;;;;;70.20;55.40;30.20;99.90;;;;;;5012479;28;8767;-64
2022/03/14 03:40:28;;;;;;;;;65.60;51.00;30.20;99.90;;;;;;5012429;28;8759;-63
2022/03/14 03:42:55;;;;;;;;;70.40;53.80;30.40;99.90;;;;;;5015101;28;8783;-63
2022/03/14 03:45:22;;;;;;;;;67.00;53.20;30.30;99.90;;;;;;5014851;28;8912;-64
2022/03/14 03:47:49;;;;;;;;;68.60;53.00;30.20;99.90;;;;;;5016967;28;8775;-67
2022/03/14 03:50:18;;;;;;;;;67.40;53.40;30.10;99.90;;;;;;5017250;28;8790;-61
2022/03/14 03:52:45;;;;;;;;;69.80;53.20;30.30;99.90;;;;;;5032020;28;8805;-62
2022/03/14 03:55:12;;;;;;;;;67.20;53.00;30.40;99.90;;;;;;5032835;28;8876;-62
2022/03/14 03:57:38;;;;;;;;;64.20;51.60;30.40;99.90;;;;;;5017009;28;8774;-63
2022/03/14 04:00:07;;;;;;;;;70.00;53.40;30.60;99.90;;;;;;5016488;28;8832;-64
2022/03/14 04:02:39;;;;;;;;;66.40;53.80;30.60;99.90;;;;;;5031336;28;9067;-63
2022/03/14 04:05:06;;;;;;;;;64.80;50.40;30.70;99.90;;;;;;5016562;28;8806;-63
2022/03/14 04:07:34;;;;;;;;;67.67;54.33;30.80;99.90;;;;;;5016059;28;8771;-63
2022/03/14 04:10:04;;;;;;;;;66.00;52.40;30.90;99.90;;;;;;5015656;28;8751;-63
2022/03/14 04:12:31;;;;;;;;;70.60;56.80;31.10;99.90;;;;;;5016204;28;8763;-70
2022/03/14 04:14:58;;;;;;;;;66.80;52.00;31.10;99.90;;;;;;5016321;28;8739;-69
2022/03/14 04:17:25;;;;;;;;;64.80;52.40;31.10;99.90;;;;;;5015437;28;8775;-68
2022/03/14 04:19:57;;;;;;;;;64.20;50.80;31.20;99.90;;;;;;5014983;28;8779;-71
2022/03/14 04:22:23;;;;;;;;;64.20;50.40;31.30;99.90;;;;;;5030424;28;8747;-69
2022/03/14 04:24:50;;;;;;;;;65.40;53.40;31.30;99.90;;;;;;5032255;28;8838;-71
2022/03/14 04:27:17;;;;;;;;;64.20;51.60;31.40;99.90;;;;;;5027094;28;9462;-69
2022/03/14 04:29:43;;;;;;;;;63.20;49.60;31.40;99.90;;;;;;4994654;28;8847;-69
2022/03/14 04:32:10;;;;;;;;;62.40;50.60;31.50;99.90;;;;;;4995287;28;8769;-71
2022/03/14 04:34:36;;;;;;;;;61.60;48.60;31.50;99.90;;;;;;4994690;28;8754;-70
2022/03/14 04:37:03;;;;;;;;;65.60;53.20;31.60;99.90;;;;;;4996530;28;8785;-71
2022/03/14 04:39:30;;;;;;;;;61.00;48.40;31.70;99.90;;;;;;4996035;28;8730;-71
2022/03/14 04:41:57;;;;;;;;;61.40;48.20;31.70;99.90;;;;;;4998073;28;8761;-70
2022/03/14 04:44:24;;;;;;;;;59.60;46.20;31.60;99.90;;;;;;5018292;28;8739;-67
2022/03/14 04:46:51;;;;;;;;;59.00;48.60;31.70;99.50;;;;;;5018755;28;8755;-68
2022/03/14 04:49:17;;;;;;;;;56.60;46.80;31.60;99.90;;;;;;5018943;28;9403;-67
2022/03/14 04:51:44;;;;;;;;;62.80;50.60;31.70;99.60;;;;;;5033414;28;8766;-70
2022/03/14 04:54:11;;;;;;;;;61.60;49.40;31.80;99.30;;;;;;5016531;28;8747;-69
2022/03/14 04:56:37;;;;;;;;;61.00;49.00;31.90;99.50;;;;;;5024230;28;8763;-69
2022/03/14 04:59:04;;;;;;;;;63.00;48.40;32.00;99.40;;;;;;5018398;28;8762;-70
2022/03/14 05:01:31;;;;;;;;;62.40;50.40;32.00;98.80;;;;;;5017676;28;8731;-70
2022/03/14 05:03:58;;;;;;;;;61.80;49.80;32.00;99.60;;;;;;5018652;28;8732;-71
2022/03/14 05:06:24;;;;;;;;;58.80;48.20;32.20;99.60;;;;;;5000522;28;8922;-70
2022/03/14 05:08:51;;;;;;;;;60.20;45.80;32.30;99.50;;;;;;5018401;28;8774;-70
2022/03/14 05:11:18;;;;;;;;;62.40;49.80;32.40;98.30;;;;;;5017898;28;8868;-68
2022/03/14 05:13:45;;;;;;;;;37.60;30.80;32.50;98.10;;;;;;5016564;28;8805;-67
2022/03/14 05:16:12;;;;;;;;;63.00;50.80;32.50;95.70;;;;;;5016790;28;8803;-68
2022/03/14 05:18:38;;;;;;;;;57.80;46.20;32.60;96.50;;;;;;5015872;28;8771;-67
2022/03/14 05:21:05;;;;;;;;;58.80;47.40;32.70;96.70;;;;;;5018170;28;8791;-68
2022/03/14 05:23:32;;;;;;;;;57.60;45.80;32.80;96.90;;;;;;5032649;28;8856;-70
2022/03/14 05:25:59;;;;;;;;;58.25;48.25;32.80;97.80;;;;;;5032816;28;8767;-69
2022/03/14 05:28:26;;;;;;;;;67.40;51.80;32.90;96.70;;;;;;5016203;28;8756;-70
2022/03/14 05:30:53;;;;;;;;;62.00;49.60;33.00;95.90;;;;;;5033611;28;8932;-69
2022/03/14 05:33:20;;;;;;;;;63.00;47.60;33.00;96.10;;;;;;5017790;28;8840;-67
2022/03/14 05:35:47;;;;;;;;;61.00;48.60;33.10;95.60;;;;;;5017167;28;8791;-70
2022/03/14 05:38:14;;;;;;;;;57.20;46.40;33.20;96.40;;;;;;5016266;28;9400;-70
2022/03/14 05:40:41;;;;;;;;;62.60;48.60;33.30;96.50;;;;;;5016401;28;9142;-63
2022/03/14 05:43:08;;;;;;;;;59.60;47.80;33.20;95.70;;;;;;5016342;28;8751;-64
2022/03/14 05:45:35;;;;;;;;;58.80;45.80;33.30;95.90;;;;;;5017371;28;8819;-63
2022/03/14 05:48:02;;;;;;;;;51.80;43.80;34.00;95.50;;;;;;5033001;28;8795;-63
2022/03/14 05:50:28;;;;;;;;;54.60;43.00;34.40;93.50;;;;;;5016092;28;8763;-66
2022/03/14 05:52:55;;;;;;;;;57.80;46.00;34.60;94.40;;;;;;5015984;28;8755;-64
2022/03/14 05:55:22;;;;;;;;;59.00;47.60;34.50;93.10;;;;;;5016231;28;8841;-63
2022/03/14 05:57:49;;;;;;;;;50.00;41.60;34.50;94.10;;;;;;5015453;28;8787;-64
2022/03/14 06:00:23;;;;;;;;;59.40;46.40;34.50;93.30;;;;;;5017502;28;8755;-65
2022/03/14 06:02:52;;;;;;;;;52.60;43.80;34.20;94.00;;;;;;5015649;28;8864;-63
2022/03/14 06:05:19;;;;;;;;;56.20;45.60;34.40;93.10;;;;;;5016180;28;8795;-63
2022/03/14 06:07:46;;;;;;;;;53.40;43.40;34.60;92.20;;;;;;5014020;28;8822;-68
2022/03/14 06:10:15;;;;;;;;;51.40;43.00;34.70;92.20;;;;;;5012643;28;8762;-63
2022/03/14 06:12:42;;;;;;;;;53.40;43.00;34.70;92.50;;;;;;5012608;28;8786;-64
2022/03/14 06:15:12;;;;;;;;;51.80;42.00;35.00;91.20;;;;;;5015282;28;9102;-64
2022/03/14 06:17:43;;;;;;;;;55.60;44.00;34.90;91.20;;;;;;5016126;28;8877;-64
2022/03/14 06:20:16;;;;;;;;;48.50;39.75;34.80;91.80;;;;;;5015224;28;9549;-64
2022/03/14 06:22:46;;;;;;;;;55.60;43.80;35.00;89.90;;;;;;5032221;28;8766;-64
2022/03/14 06:25:13;;;;;;;;;58.00;46.60;35.10;91.00;;;;;;5017382;28;8759;-64
2022/03/14 06:27:40;;;;;;;;;52.00;43.75;35.30;89.90;;;;;;5031852;28;8790;-64
2022/03/14 06:30:08;;;;;;;;;49.50;40.50;35.70;85.50;;;;;;5031607;28;8775;-64
2022/03/14 06:32:38;;;;;;;;;55.00;41.25;36.00;82.20;;;;;;5015966;28;8775;-64
2022/03/14 06:35:05;;;;;;;;;51.25;42.25;36.10;82.50;;;;;;5014927;28;8827;-64
2022/03/14 06:37:32;;;;;;;;;54.25;44.50;35.90;87.80;;;;;;5016481;28;8851;-63
2022/03/14 06:39:59;;;;;;;;;53.20;43.80;36.20;85.60;;;;;;5017808;28;8740;-64
2022/03/14 06:42:26;;;;;;;;;55.00;43.50;36.00;81.70;;;;;;5015308;28;8791;-64
2022/03/14 06:44:53;;;;;;;;;47.00;39.75;35.80;85.00;;;;;;5031150;28;8759;-64
2022/03/14 06:47:21;;;;;;;;;45.50;38.25;36.20;83.10;;;;;;5030559;28;8855;-63
2022/03/14 06:49:47;;;;;;;;;53.00;43.25;36.00;84.00;;;;;;5016328;28;8778;-63
2022/03/14 06:52:14;;;;;;;;;48.25;39.50;36.10;80.70;;;;;;5015640;28;8743;-64
2022/03/14 06:54:41;;;;;;;;;51.00;42.75;36.20;80.90;;;;;;5015772;28;8747;-63
2022/03/14 06:57:09;;;;;;;;;49.75;41.25;36.50;80.40;;;;;;5015778;28;9365;-63
2022/03/14 06:59:35;;;;;;;;;53.00;44.00;36.40;80.00;;;;;;4998153;28;9130;-64
2022/03/14 07:02:02;;;;;;;;;47.00;39.50;36.50;76.90;;;;;;5016733;28;8818;-69
2022/03/14 07:04:29;;;;;;;;;51.50;42.00;36.80;74.90;;;;;;5015776;28;8735;-66
2022/03/14 07:06:56;;;;;;;;;48.25;40.50;36.80;76.80;;;;;;5017080;28;8751;-65
2022/03/14 07:09:23;;;;;;;;;48.50;39.75;36.80;78.60;;;;;;5030599;28;8868;-65
2022/03/14 07:11:51;;;;;;;;;50.00;38.75;36.90;77.70;;;;;;5016339;28;8755;-65
2022/03/14 07:14:21;;;;;;;;;52.50;42.00;36.60;76.20;;;;;;4996378;28;8722;-66
2022/03/14 07:16:48;;;;;;;;;48.75;40.25;36.50;76.40;;;;;;4997365;28;8920;-63
2022/03/14 07:19:15;;;;;;;;;51.00;41.00;36.70;78.10;;;;;;5001339;28;8769;-62
2022/03/14 07:21:42;;;;;;;;;51.25;41.50;36.50;78.10;;;;;;5015539;28;9167;-62
2022/03/14 07:24:08;;;;;;;;;52.75;42.50;36.40;77.10;;;;;;5001279;28;8790;-62
2022/03/14 07:26:35;;;;;;;;;47.25;40.00;36.50;73.40;;;;;;5000926;28;8761;-61
2022/03/14 07:29:02;;;;;;;;;51.50;42.25;36.60;75.30;;;;;;5016828;28;8755;-63
2022/03/14 07:31:28;;;;;;;;;52.00;41.25;36.50;76.20;;;;;;5035793;28;8766;-60
2022/03/14 07:33:55;;;;;;;;;51.50;42.00;36.80;73.70;;;;;;5020592;28;8782;-61
2022/03/14 07:36:22;;;;;;;;;53.00;41.75;36.90;73.70;;;;;;5020050;28;8783;-61
2022/03/14 07:38:48;;;;;;;;;50.75;41.00;37.00;73.60;;;;;;5020456;28;8771;-62
2022/03/14 07:41:15;;;;;;;;;45.25;37.00;37.10;71.10;;;;;;5018697;28;8755;-62
2022/03/14 07:43:42;;;;;;;;;53.00;42.00;37.10;72.20;;;;;;5035305;28;8763;-61
2022/03/14 07:46:08;;;;;;;;;49.75;41.00;37.30;72.80;;;;;;5020528;28;8820;-62
2022/03/14 07:48:35;;;;;;;;;49.25;40.00;37.20;71.00;;;;;;5017777;28;8744;-62
2022/03/14 07:51:03;;;;;;;;;48.75;40.25;37.30;72.80;;;;;;5019728;28;8755;-62
2022/03/14 07:53:31;;;;;;;;;49.00;40.00;37.10;70.20;;;;;;5019546;28;8848;-63
2022/03/14 07:55:57;;;;;;;;;48.25;38.75;37.40;69.80;;;;;;5034465;28;8777;-62
2022/03/14 07:58:24;;;;;;;;;51.00;41.75;37.30;69.20;;;;;;5019722;28;8771;-62
2022/03/14 08:00:51;;;;;;;;;48.75;40.50;37.20;69.20;;;;;;5019699;28;8738;-62
2022/03/14 08:03:22;;;;;;;;;47.75;39.25;37.30;70.40;;;;;;5034370;28;8782;-64
2022/03/14 08:05:53;;;;;;;;;50.00;41.50;37.40;68.60;;;;;;5034156;28;8790;-64
2022/03/14 08:08:20;;;;;;;;;47.50;39.50;37.50;68.70;;;;;;5018938;28;8837;-64
2022/03/14 08:10:47;;;;;;;;;48.50;40.50;37.20;70.00;;;;;;5034390;28;8764;-64
2022/03/14 08:13:14;;;;;;;;;49.25;39.25;37.30;68.10;;;;;;5019572;28;8893;-62
2022/03/14 08:15:40;;;;;;;;;50.25;41.50;37.40;69.10;;;;;;5033778;28;8767;-64
2022/03/14 08:18:08;;;;;;;;;48.25;39.25;37.20;67.90;;;;;;5019278;28;8801;-65
2022/03/14 08:20:37;;;;;;;;;47.50;40.50;37.30;69.00;;;;;;5000976;28;8841;-63
2022/03/14 08:23:03;;;;;;;;;45.75;38.75;37.30;66.80;;;;;;5017594;28;8782;-63
2022/03/14 08:25:31;;;;;;;;;48.75;38.75;37.50;67.40;;;;;;5018313;28;8801;-63
2022/03/14 08:27:57;;;;;;;;;47.50;39.50;37.40;69.30;;;;;;5007849;28;8758;-62
2022/03/14 08:30:25;;;;;;;;;44.25;37.75;37.30;66.80;;;;;;4981143;28;8777;-63
2022/03/14 08:32:54;;;;;;;;;49.00;41.25;37.50;67.20;;;;;;4981250;28;8769;-63
2022/03/14 08:35:20;;;;;;;;;37.00;33.25;37.30;68.60;;;;;;4997429;28;8794;-65
2022/03/14 08:37:51;;;;;;;;;46.75;39.75;37.40;70.00;;;;;;4998881;28;8765;-69
2022/03/14 08:40:21;;;;;;;;;43.75;36.00;37.50;66.80;;;;;;4998799;28;8746;-63
2022/03/14 08:42:47;;;;;;;;;49.75;40.50;37.20;68.60;;;;;;5006025;28;8751;-63
2022/03/14 08:45:14;;;;;;;;;51.50;41.75;37.10;68.20;;;;;;5018653;28;8763;-63
2022/03/14 08:47:44;;;;;;;;;49.00;40.75;37.00;69.30;;;;;;5016549;28;8865;-62
2022/03/14 08:50:11;;;;;;;;;48.00;41.00;36.90;69.10;;;;;;5018788;28;8785;-63
2022/03/14 08:52:38;;;;;;;;;53.75;43.00;36.90;70.20;;;;;;5033763;28;9134;-62
2022/03/14 08:55:05;;;;;;;;;45.75;39.50;36.80;69.60;;;;;;5034358;28;8775;-63
2022/03/14 08:57:32;;;;;;;;;49.00;41.50;36.80;68.30;;;;;;5016855;28;8751;-63
2022/03/14 08:59:58;;;;;;;;;46.00;39.25;36.70;68.50;;;;;;5018166;28;8793;-62
2022/03/14 09:02:26;;;;;;;;;44.75;37.25;36.60;69.30;;;;;;5017104;28;9089;-61
2022/03/14 09:04:53;;;;;;;;;48.00;38.75;36.60;68.70;;;;;;5033673;28;8754;-61
2022/03/14 09:07:26;;;;;;;;;45.50;38.00;36.70;66.80;;;;;;5018180;28;8790;-60
2022/03/14 09:09:53;;;;;;;;;49.75;40.00;36.50;67.80;;;;;;5017869;28;8739;-61
2022/03/14 09:12:20;;;;;;;;;48.00;40.00;36.50;67.50;;;;;;5017715;28;8755;-61
2022/03/14 09:14:47;;;;;;;;;51.25;42.00;36.50;66.50;;;;;;5033905;28;8731;-62
2022/03/14 09:17:14;;;;;;;;;32.00;29.50;36.40;67.30;;;;;;5033702;28;8751;-62
2022/03/14 09:19:41;;;;;;;;;49.00;40.50;36.40;66.10;;;;;;5018260;28;8728;-61
2022/03/14 09:22:09;;;;;;;;;48.00;38.75;36.30;68.10;;;;;;5018937;28;8754;-61
2022/03/14 09:24:37;;;;;;;;;49.25;40.75;36.30;68.90;;;;;;5016458;28;8735;-62
2022/03/14 09:27:04;;;;;;;;;45.60;38.20;36.30;70.40;;;;;;5016668;28;8820;-61
2022/03/14 09:29:31;;;;;;;;;46.60;38.00;36.30;68.20;;;;;;5032602;28;8781;-61
2022/03/14 09:31:58;;;;;;;;;50.75;41.25;36.30;68.60;;;;;;5018350;28;8818;-61
2022/03/14 09:34:25;;;;;;;;;46.00;38.00;36.30;68.40;;;;;;5018017;28;8766;-61
2022/03/14 09:36:55;;;;;;;;;47.75;39.75;36.20;66.10;;;;;;5033911;28;8745;-62
2022/03/14 09:39:21;;;;;;;;;49.00;40.50;36.20;66.70;;;;;;5017445;28;8711;-62
2022/03/14 09:41:49;;;;;;;;;45.00;36.00;36.20;66.80;;;;;;5016836;28;8775;-61
2022/03/14 09:44:16;;;;;;;;;53.20;42.20;36.20;66.20;;;;;;4997195;28;8864;-61
2022/03/14 09:46:43;;;;;;;;;50.00;42.75;36.10;66.10;;;;;;4997369;28;8773;-62
2022/03/14 09:49:10;;;;;;;;;46.75;39.50;36.10;65.40;;;;;;5014258;28;8784;-61
2022/03/14 09:51:39;;;;;;;;;52.25;41.50;36.10;65.90;;;;;;5012886;28;8777;-61
2022/03/14 09:54:07;;;;;;;;;50.20;41.20;36.00;67.50;;;;;;4996841;28;8811;-61
2022/03/14 09:56:34;;;;;;;;;45.00;37.50;36.00;67.30;;;;;;5012727;28;8773;-61
2022/03/14 09:59:00;;;;;;;;;51.00;41.00;36.00;67.10;;;;;;5015788;28;8771;-61
2022/03/14 10:01:29;;;;;;;;;52.00;43.00;35.90;68.80;;;;;;5017718;28;8861;-61
2022/03/14 10:03:56;;;;;;;;;52.00;41.00;35.90;69.60;;;;;;5016711;28;8750;-62
2022/03/14 10:06:23;;;;;;;;;46.60;38.80;35.90;69.30;;;;;;5017070;28;8846;-61
2022/03/14 10:08:49;;;;;;;;;31.50;27.00;35.90;67.90;;;;;;5017496;28;8751;-62
2022/03/14 10:11:16;;;;;;;;;49.00;38.60;35.90;67.20;;;;;;5032976;28;8778;-62
2022/03/14 10:13:43;;;;;;;;;49.80;41.20;35.90;67.90;;;;;;5016964;28;9090;-62
2022/03/14 10:16:09;;;;;;;;;49.20;41.00;35.90;68.80;;;;;;5016355;28;8775;-61
2022/03/14 10:18:40;;;;;;;;;46.20;38.60;35.70;69.10;;;;;;5016971;28;8747;-61
2022/03/14 10:21:07;;;;;;;;;51.40;43.00;35.60;69.40;;;;;;5016006;28;8920;-62
2022/03/14 10:23:37;;;;;;;;;56.20;43.20;35.60;70.40;;;;;;5016761;28;8848;-61
2022/03/14 10:26:06;;;;;;;;;51.00;39.80;35.50;69.90;;;;;;5017147;28;8795;-61
2022/03/14 10:28:38;;;;;;;;;50.00;41.80;35.40;70.20;;;;;;5018137;28;8780;-62
2022/03/14 10:31:05;;;;;;;;;51.20;42.60;35.40;70.30;;;;;;4998018;28;8765;-62
2022/03/14 10:33:32;;;;;;;;;51.50;41.25;35.40;71.30;;;;;;4996836;28;8867;-61
2022/03/14 10:36:00;;;;;;;;;53.60;41.60;35.30;72.40;;;;;;4997583;28;8785;-62
2022/03/14 10:38:26;;;;;;;;;55.00;41.60;35.20;72.60;;;;;;4997192;28;8777;-61
2022/03/14 10:40:56;;;;;;;;;49.80;41.60;35.20;72.90;;;;;;4996392;28;8765;-62
2022/03/14 10:43:29;;;;;;;;;53.25;43.00;35.20;74.00;;;;;;4992379;28;8770;-61
2022/03/14 10:45:56;;;;;;;;;55.60;44.20;35.10;74.30;;;;;;5015997;28;8839;-62
2022/03/14 10:48:46;;;;;;;;;48.50;41.25;35.10;74.70;;;;;;5015247;28;8775;-61
2022/03/14 10:51:18;;;;;;;;;50.50;42.50;34.90;75.90;;;;;;5009746;28;8801;-62
2022/03/14 10:53:45;;;;;;;;;55.50;44.25;34.70;75.90;;;;;;5016705;28;9166;-62
2022/03/14 10:56:12;;;;;;;;;54.25;43.25;34.60;76.20;;;;;;5031668;28;8782;-61
2022/03/14 10:58:39;;;;;;;;;52.20;42.40;34.50;79.30;;;;;;5016498;28;8771;-61
2022/03/14 11:01:12;;;;;;;;;39.20;34.00;34.40;78.90;;;;;;5016416;28;8834;-62
2022/03/14 11:03:41;;;;;;;;;54.40;45.40;34.30;81.70;;;;;;5017088;28;8937;-62
2022/03/14 11:06:14;;;;;;;;;58.80;47.00;34.30;80.80;;;;;;5031883;28;8846;-61
2022/03/14 11:08:48;;;;;;;;;60.80;46.60;34.20;79.30;;;;;;5015249;28;8849;-62
2022/03/14 11:11:21;;;;;;;;;60.20;47.40;34.20;79.20;;;;;;5016795;28;8774;-62
2022/03/14 11:13:49;;;;;;;;;56.00;46.00;34.10;78.70;;;;;;5031385;28;8775;-62
2022/03/14 11:16:22;;;;;;;;;52.80;44.60;34.00;78.20;;;;;;5016777;28;8787;-61
2022/03/14 11:18:50;;;;;;;;;53.75;42.25;34.00;78.70;;;;;;5016672;28;8736;-62
2022/03/14 11:21:20;;;;;;;;;55.25;45.75;33.80;78.40;;;;;;5016424;28;8774;-62
2022/03/14 11:23:49;;;;;;;;;56.40;43.40;33.80;79.80;;;;;;5016695;28;9047;-62
2022/03/14 11:26:17;;;;;;;;;62.20;50.00;33.80;81.60;;;;;;5016280;28;8788;-62
2022/03/14 11:28:46;;;;;;;;;58.40;47.00;33.70;83.10;;;;;;4999798;28;9458;-62
2022/03/14 11:31:17;;;;;;;;;61.20;48.00;33.70;83.70;;;;;;4996135;28;8765;-62
2022/03/14 11:33:47;;;;;;;;;56.60;46.60;33.60;84.20;;;;;;4997030;28;8765;-62
2022/03/14 11:36:14;;;;;;;;;60.00;47.80;33.60;85.00;;;;;;4996587;28;8999;-62
2022/03/14 11:38:41;;;;;;;;;60.80;49.20;33.50;88.20;;;;;;4996542;28;9231;-62
2022/03/14 11:41:07;;;;;;;;;58.40;46.80;33.40;87.20;;;;;;4996855;28;8951;-62
2022/03/14 11:43:34;;;;;;;;;61.00;48.00;33.40;87.80;;;;;;5010057;28;8774;-61
2022/03/14 11:46:01;;;;;;;;;59.60;48.20;33.30;87.00;;;;;;5016837;28;8759;-62
2022/03/14 11:48:34;;;;;;;;;59.00;44.60;33.20;86.00;;;;;;5031070;28;8786;-62
2022/03/14 11:51:06;;;;;;;;;60.80;46.60;33.20;85.40;;;;;;5016791;28;8771;-62
2022/03/14 11:53:35;;;;;;;;;62.00;49.20;33.10;84.80;;;;;;5016071;28;8755;-62
2022/03/14 11:56:08;;;;;;;;;55.80;45.00;32.90;84.80;;;;;;5031345;28;8751;-61
2022/03/14 11:58:38;;;;;;;;;54.20;43.20;32.90;85.40;;;;;;5017328;28;8773;-61
2022/03/14 12:01:18;;;;;;;;;60.60;48.20;32.80;84.40;;;;;;4997155;28;8766;-61
2022/03/14 12:03:55;;;;;;;;;56.00;45.40;32.60;85.40;;;;;;4999503;28;8784;-61
2022/03/14 12:06:46;;;;;;;;;64.20;50.00;32.50;86.60;;;;;;4998651;28;8809;-61
2022/03/14 12:09:45;;;;;;;;;64.00;49.00;32.50;88.20;;;;;;5000389;28;8770;-61
2022/03/14 12:12:17;;;;;;;;;61.20;50.00;32.40;88.90;;;;;;5002535;28;8765;-61
2022/03/14 12:14:46;;;;;;;;;53.80;42.60;32.40;89.60;;;;;;5019922;28;8782;-61
2022/03/14 12:17:16;;;;;;;;;58.00;46.40;32.40;89.20;;;;;;5019470;28;8809;-61
2022/03/14 12:19:53;;;;;;;;;59.60;49.40;32.50;89.40;;;;;;5019266;28;8739;-62
2022/03/14 12:22:44;;;;;;;;;60.60;48.00;32.50;89.20;;;;;;5020221;28;8801;-61
2022/03/14 12:25:13;;;;;;;;;66.00;52.00;32.40;89.60;;;;;;5019905;28;9412;-61
2022/03/14 12:27:41;;;;;;;;;59.20;48.80;32.40;89.50;;;;;;5018223;28;8779;-61
2022/03/14 12:30:16;;;;;;;;;64.60;51.80;32.30;90.00;;;;;;5019568;28;8781;-61
2022/03/14 12:32:49;;;;;;;;;64.40;50.00;32.40;90.20;;;;;;5019885;28;8751;-61
2022/03/14 12:35:22;;;;;;;;;62.00;50.00;32.30;90.50;;;;;;5020055;28;8770;-61
2022/03/14 12:37:54;;;;;;;;;63.40;51.60;32.20;90.80;;;;;;5020101;28;8778;-61
2022/03/14 12:40:20;;;;;;;;;66.40;52.80;32.00;91.40;;;;;;5035638;28;8821;-61